Flight Track Log - Related Links

Times and Time Zones

All times are in EDT time to prevent confusion due to time zone crossing. See the N799CP flight status page for this flight to view local times or setup timezone preferences in your user account.

Time Position Orientation Groundspeed Altitude Reporting Facility
EDT Latitude Longitude Course Direction KTS MPH feet Rate Location/Type
Wed 04:53:01 PM 45.6044 -122.6242 294° West 191 220 1,600  Level Seattle Center
Wed 04:54:02 PM 45.6369 -122.6964 303° West 251 289 4,800 3,344 Climbing Seattle Center
Wed 04:55:03 PM 45.6789 -122.6256 50° Northeast 257 296 8,400 2,743 Climbing Seattle Center
Wed 05:01:02 PM 45.7660 -121.7600 50° Northeast 416 479 24,000 2,406 Climbing FlightAware ADS-B
Wed 05:01:42 PM 45.7770 -121.6540 81° East 419 482 24,400 1,482 Climbing FlightAware ADS-B
Wed 05:02:27 PM 45.7890 -121.5260 82° East 424 488 26,100 2,259 Climbing FlightAware ADS-B
Wed 05:03:07 PM 45.7990 -121.4170 82° East 429 494 27,600 2,625 Climbing FlightAware ADS-B
Wed 05:03:47 PM 45.8100 -121.3010 82° East 422 486 29,600 2,753 Climbing FlightAware ADS-B
Wed 05:04:32 PM 45.8210 -121.1790 83° East 418 481 31,500 2,400 Climbing FlightAware ADS-B
Wed 05:05:12 PM 45.8320 -121.0690 82° East 417 480 33,000 2,475 Climbing FlightAware ADS-B
Wed 05:05:52 PM 45.8410 -120.9630 83° East 406 467 34,800 2,471 Climbing FlightAware ADS-B
Wed 05:06:37 PM 45.8520 -120.8390 83° East 402 463 36,500 2,118 Climbing FlightAware ADS-B
Wed 05:07:17 PM 45.8620 -120.7390 82° East 399 459 37,800 1,624 Climbing FlightAware ADS-B
Wed 05:08:02 PM 45.8720 -120.6200 83° East 404 465 38,800 1,271 Climbing FlightAware ADS-B
Wed 05:08:42 PM 45.8810 -120.5120 83° East 407 468 39,600 1,500 Climbing FlightAware ADS-B
Wed 05:09:22 PM 45.8910 -120.4070 82° East 401 461 40,800 988 Climbing FlightAware ADS-B
Wed 05:10:07 PM 45.9010 -120.2850 83° East 413 475 41,000 141 Climbing FlightAware ADS-B
Wed 05:10:47 PM 45.9110 -120.1730 83° East 423 487 41,000  Level FlightAware ADS-B
Wed 05:11:27 PM 45.9190 -120.0680 84° East 431 496 41,000  Level FlightAware ADS-B
Wed 05:12:12 PM 45.9300 -119.9360 83° East 435 501 41,000  Level FlightAware ADS-B
Wed 05:12:52 PM 45.9400 -119.8220 83° East 434 499 41,000  Level FlightAware ADS-B
Wed 05:13:37 PM 45.9500 -119.6910 84° East 433 498 41,000  Level FlightAware ADS-B
Wed 05:14:17 PM 45.9590 -119.5760 84° East 433 498 41,000  Level FlightAware ADS-B
Wed 05:14:57 PM 45.9670 -119.4660 84° East 433 498 41,000  Level FlightAware ADS-B
Wed 05:15:42 PM 45.9770 -119.3370 84° East 434 499 41,000  Level FlightAware ADS-B
Wed 05:16:22 PM 45.9860 -119.2210 84° East 434 499 41,000  Level FlightAware ADS-B
Wed 05:17:07 PM 45.9960 -119.0890 84° East 435 501 41,000  Level FlightAware ADS-B
Wed 05:17:47 PM 46.0040 -118.9810 84° East 436 502 41,000  Level FlightAware ADS-B
Wed 05:18:32 PM 46.0130 -118.8470 84° East 437 503 41,000  Level FlightAware ADS-B
Wed 05:19:12 PM 46.0220 -118.7310 84° East 438 504 41,000  Level FlightAware ADS-B
Wed 05:19:52 PM 46.0300 -118.6160 84° East 438 504 41,000  Level FlightAware ADS-B
Wed 05:20:37 PM 46.0380 -118.5040 84° East 439 505 41,000  Level FlightAware ADS-B
Wed 05:21:17 PM 46.0470 -118.3720 84° East 440 506 41,000  Level FlightAware ADS-B
Wed 05:22:02 PM 46.0560 -118.2350 85° East 441 507 41,000  Level FlightAware ADS-B
Wed 05:22:42 PM 46.0640 -118.1210 84° East 439 505 41,000  Level FlightAware ADS-B
Wed 05:23:22 PM 46.0710 -118.0030 85° East 440 506 41,000  Level FlightAware ADS-B
Wed 05:24:07 PM 46.0790 -117.8840 84° East 440 506 41,000  Level FlightAware ADS-B
Wed 05:24:47 PM 46.0860 -117.7680 85° East 441 507 41,000  Level FlightAware ADS-B
Wed 05:25:22 PM 46.0920 -117.6630 85° East 443 510 41,000  Level FlightAware ADS-B
Wed 05:26:07 PM 46.1000 -117.5280 85° East 445 512 41,000  Level FlightAware ADS-B
Wed 05:26:52 PM 46.1090 -117.3900 85° East 445 512 41,000  Level FlightAware ADS-B
Wed 05:27:32 PM 46.1150 -117.2890 85° East 446 513 41,000  Level FlightAware ADS-B
Wed 05:28:17 PM 46.1230 -117.1400 86° East 448 516 41,000  Level FlightAware ADS-B
Wed 05:28:57 PM 46.1300 -117.0350 84° East 448 516 41,000  Level FlightAware ADS-B
Wed 05:29:37 PM 46.1360 -116.9330 85° East 448 516 41,000  Level FlightAware ADS-B
Wed 05:30:17 PM 46.1420 -116.8320 85° East 448 516 41,000  Level FlightAware ADS-B
Wed 05:30:57 PM 46.1480 -116.7310 85° East 448 516 41,000  Level FlightAware ADS-B
Wed 05:31:47 PM 46.1560 -116.6040 85° East 448 516 41,000  Level FlightAware ADS-B
Wed 05:32:27 PM 46.1620 -116.5030 85° East 448 516 41,000  Level FlightAware ADS-B
Wed 05:33:07 PM 46.1680 -116.4010 85° East 448 516 41,000  Level FlightAware ADS-B
Wed 05:33:57 PM 46.1760 -116.2750 85° East 448 516 41,000  Level FlightAware ADS-B
Wed 05:34:37 PM 46.1820 -116.1730 85° East 448 516 41,000  Level FlightAware ADS-B
Wed 05:35:17 PM 46.1880 -116.0720 85° East 448 516 41,000  Level FlightAware ADS-B
Wed 05:35:57 PM 46.1940 -115.9700 85° East 448 516 41,000  Level FlightAware ADS-B
Wed 05:36:37 PM 46.2000 -115.8690 85° East 448 516 41,000  Level FlightAware ADS-B
Wed 05:37:17 PM 46.2060 -115.7680 85° East 448 516 41,000  Level FlightAware ADS-B
Wed 05:38:07 PM 46.2140 -115.6410 85° East 448 516 41,000 -67 Level FlightAware ADS-B
Wed 05:38:46 PM 46.2139 -115.2739 85° East 449 517 40,900 -58 Descending Seattle Center
Wed 05:39:51 PM 46.2200 -115.0992 87° East 452 520 40,900  Level Salt Lake Center
Wed 05:40:53 PM 46.2272 -114.9181 87° East 454 522 40,900  Level Salt Lake Center
Wed 05:41:55 PM 46.2358 -114.7003 87° East 455 524 40,900  Level Salt Lake Center
Wed 05:42:57 PM 46.2422 -114.5206 87° East 452 520 40,900  Level Salt Lake Center
Wed 05:43:59 PM 46.2483 -114.3378 87° East 455 524 40,900  Level Salt Lake Center
Wed 05:45:01 PM 46.2536 -114.1567 88° East 455 524 40,900  Level Salt Lake Center
Wed 05:46:03 PM 46.2594 -113.9739 87° East 456 525 40,900  Level Salt Lake Center
Wed 05:47:04 PM 46.2642 -113.7906 88° East 459 528 40,900  Level Salt Lake Center
Wed 05:48:06 PM 46.2694 -113.5736 88° East 453 521 40,900  Level Salt Lake Center
Wed 05:49:08 PM 46.2739 -113.3900 88° East 458 527 40,900 48 Level Salt Lake Center
Wed 05:50:10 PM 46.2764 -113.2175 89° East 451 519 41,000 48 Climbing Salt Lake Center
Wed 05:51:12 PM 46.2800 -113.0361 88° East 454 522 41,000  Level Salt Lake Center
Wed 05:52:14 PM 46.2844 -112.8528 88° East 454 522 41,000  Level Salt Lake Center
Wed 05:53:16 PM 46.2892 -112.6317 88° East 458 527 41,000  Level Salt Lake Center
Wed 05:54:18 PM 46.2919 -112.4494 89° East 455 524 41,000  Level Salt Lake Center
Wed 05:55:20 PM 46.2944 -112.2647 89° East 458 527 41,000  Level Salt Lake Center
Wed 05:56:22 PM 46.2978 -112.0800 88° East 459 528 41,000  Level Salt Lake Center
Wed 05:57:24 PM 46.3003 -111.8933 89° East 464 534 41,000  Level Salt Lake Center
Wed 05:58:26 PM 46.3022 -111.7103 89° East 456 525 41,000  Level Salt Lake Center
Wed 05:59:28 PM 46.3036 -111.5242 89° East 460 529 41,000  Level Salt Lake Center
Wed 06:00:29 PM 46.3058 -111.3381 89° East 460 529 41,000  Level Salt Lake Center
Wed 06:01:31 PM 46.3069 -111.1139 90° East 461 531 41,000  Level Salt Lake Center
Wed 06:02:33 PM 46.3072 -110.9403 90° East 461 531 41,000  Level Salt Lake Center
Wed 06:03:35 PM 46.3064 -110.7336 90° East 461 531 41,000  Level Salt Lake Center
Wed 06:04:37 PM 46.3067 -110.5581 90° East 458 527 41,000  Level Salt Lake Center
Wed 06:05:39 PM 46.3061 -110.3517 90° East 460 529 41,000  Level Salt Lake Center
Wed 06:06:41 PM 46.3061 -110.1736 90° East 462 532 41,000  Level Salt Lake Center
Wed 06:07:43 PM 46.3053 -109.9964 90° East 461 531 41,000  Level Salt Lake Center
Wed 06:08:45 PM 46.3044 -109.7875 90° East 463 533 41,000  Level Salt Lake Center
Wed 06:09:47 PM 46.3039 -109.6083 90° East 465 535 41,000  Level Salt Lake Center
Wed 06:10:48 PM 46.3011 -109.4011 91° East 464 534 41,000  Level Salt Lake Center
Wed 06:11:50 PM 46.2997 -109.2225 91° East 465 535 41,000  Level Salt Lake Center
Wed 06:12:52 PM 46.2967 -109.0161 91° East 463 533 41,000  Level Salt Lake Center
Wed 06:13:54 PM 46.2939 -108.8378 91° East 467 537 41,000  Level Salt Lake Center
Wed 06:14:56 PM 46.2911 -108.6308 91° East 461 531 41,000  Level Salt Lake Center
Wed 06:15:58 PM 46.2864 -108.4522 92° East 464 534 41,000  Level Salt Lake Center
Wed 06:17:00 PM 46.2833 -108.2756 91° East 459 528 41,000  Level Salt Lake Center
Wed 06:18:01 PM 46.2781 -108.0672 92° East 463 533 41,000  Level Salt Lake Center
Wed 06:19:03 PM 46.2742 -107.8872 92° East 467 537 41,000  Level Salt Lake Center
Wed 06:20:05 PM 46.2694 -107.6781 92° East 468 539 41,000  Level Salt Lake Center
Wed 06:21:07 PM 46.2636 -107.5000 93° East 462 532 41,000  Level Salt Lake Center
Wed 06:22:09 PM 46.2581 -107.2906 92° East 466 536 41,000  Level Salt Lake Center
Wed 06:23:11 PM 46.2522 -107.1117 93° East 466 536 41,000  Level Salt Lake Center
Wed 06:24:13 PM 46.2464 -106.9303 93° East 470 541 41,000  Level Salt Lake Center
Wed 06:25:14 PM 46.2389 -106.7208 93° East 468 539 41,000  Level Salt Lake Center
Wed 06:26:16 PM 46.2322 -106.5397 93° East 469 540 41,000  Level Salt Lake Center
Wed 06:27:18 PM 46.2242 -106.3297 93° East 469 540 41,000  Level Salt Lake Center
Wed 06:28:20 PM 46.2161 -106.1497 94° East 469 540 41,000  Level Salt Lake Center
Wed 06:29:22 PM 46.2072 -105.9381 93° East 471 542 41,000  Level Salt Lake Center
Wed 06:30:24 PM 46.1989 -105.7575 94° East 471 542 41,000  Level Salt Lake Center
Wed 06:31:25 PM 46.1914 -105.5786 93° East 469 540 41,000  Level Salt Lake Center
Wed 06:32:27 PM 46.1836 -105.3711 93° East 466 536 41,000  Level Salt Lake Center
Wed 06:33:29 PM 46.1753 -105.1908 94° East 468 539 41,000  Level Salt Lake Center
Wed 06:34:31 PM 46.1642 -104.9792 94° East 471 542 41,000  Level Salt Lake Center
Wed 06:35:33 PM 46.1556 -104.8011 94° East 468 539 41,000  Level Salt Lake Center
Wed 06:36:35 PM 46.1450 -104.5917 94° East 469 540 41,000 -49 Level Salt Lake Center
Wed 06:37:36 PM 46.1358 -104.4064 94° East 471 542 40,900 -49 Descending Salt Lake Center
Wed 06:38:38 PM 46.1253 -104.2186 95° East 472 543 40,900  Level Salt Lake Center
Wed 06:39:40 PM 46.1150 -104.0317 94° East 471 542 40,900  Level Salt Lake Center
Wed 06:40:42 PM 46.1042 -103.8450 95° East 471 542 40,900  Level Salt Lake Center
Wed 06:41:44 PM 46.0925 -103.6586 95° East 471 542 40,900  Level Salt Lake Center
Wed 06:42:45 PM 46.0786 -103.4333 95° East 471 542 40,900  Level Salt Lake Center
Wed 06:43:47 PM 46.0664 -103.2408 95° East 477 549 40,900  Level Salt Lake Center
Wed 06:44:06 PM 46.0650 -103.2078 93° East 477 549 40,900  Level Minneapolis Center
Wed 06:45:08 PM 46.0536 -103.0194 95° East 475 547 40,900  Level Minneapolis Center
Wed 06:46:11 PM 46.0372 -102.7956 96° East 474 545 40,900 48 Level Minneapolis Center
Wed 06:47:13 PM 46.0231 -102.5928 96° East 477 549 41,000 48 Climbing Minneapolis Center
Wed 06:48:15 PM 46.0153 -102.4044 93° East 475 547 41,000  Level Minneapolis Center
Wed 06:49:17 PM 46.0217 -102.2131 87° East 474 545 41,000  Level Minneapolis Center
Wed 06:50:19 PM 46.0203 -102.0222 91° East 478 550 41,000  Level Minneapolis Center
Wed 06:51:21 PM 46.0147 -101.8331 92° East 476 548 41,000  Level Minneapolis Center
Wed 06:52:23 PM 46.0108 -101.6403 92° East 478 550 41,000  Level Minneapolis Center
Wed 06:53:25 PM 46.0058 -101.4103 92° East 480 552 41,000  Level Minneapolis Center
Wed 06:54:27 PM 46.0008 -101.2189 92° East 479 551 41,000  Level Minneapolis Center
Wed 06:55:29 PM 45.9944 -101.0300 93° East 477 549 41,000  Level Minneapolis Center
Wed 06:56:31 PM 45.9892 -100.8400 92° East 476 548 41,000  Level Minneapolis Center
Wed 06:57:34 PM 45.9825 -100.6500 93° East 475 547 41,000  Level Minneapolis Center
Wed 06:58:36 PM 45.9764 -100.4594 93° East 476 548 41,000  Level Minneapolis Center
Wed 06:59:38 PM 45.9697 -100.2283 92° East 477 549 41,000  Level Minneapolis Center
Wed 07:00:42 PM 45.9636 -100.0361 93° East 479 551 41,000  Level Minneapolis Center
Wed 07:01:44 PM 45.9553 -99.8425 93° East 482 555 41,000  Level Minneapolis Center
Wed 07:02:47 PM 45.9481 -99.6500 93° East 482 555 41,000  Level Minneapolis Center
Wed 07:03:49 PM 45.9392 -99.4592 94° East 480 552 41,000  Level Minneapolis Center
Wed 07:04:51 PM 45.9314 -99.2692 93° East 477 549 41,000  Level Minneapolis Center
Wed 07:10:37 PM 45.8750 -98.1490 93° East 468 539 41,000  Level FlightAware ADS-B
Wed 07:11:22 PM 45.8680 -98.0140 94° East 468 539 41,000  Level FlightAware ADS-B
Wed 07:12:02 PM 45.8610 -97.8910 95° East 469 540 41,000  Level FlightAware ADS-B
Wed 07:12:42 PM 45.8540 -97.7670 95° East 468 539 41,000  Level FlightAware ADS-B
Wed 07:13:27 PM 45.8460 -97.6230 95° East 469 540 41,000  Level FlightAware ADS-B
Wed 07:14:02 PM 45.8400 -97.5190 95° East 471 542 41,000  Level FlightAware ADS-B
Wed 07:14:47 PM 45.8310 -97.3740 95° East 474 545 41,000  Level FlightAware ADS-B
Wed 07:15:32 PM 45.8220 -97.2370 95° East 475 547 41,000 -733 Level FlightAware ADS-B
Wed 07:16:17 PM 45.8130 -97.0930 95° East 480 552 39,900 -1,553 Descending FlightAware ADS-B
Wed 07:16:57 PM 45.8050 -96.9670 95° East 474 545 38,800 -1,650 Descending FlightAware ADS-B
Wed 07:17:37 PM 45.7970 -96.8430 95° East 466 536 37,700 -1,624 Descending FlightAware ADS-B
Wed 07:18:22 PM 45.7880 -96.7140 96° East 458 527 36,500 -1,600 Descending FlightAware ADS-B
Wed 07:18:52 PM 45.7830 -96.6280 95° East 455 524 35,700 -1,650 Descending FlightAware ADS-B
Wed 07:19:42 PM 45.7720 -96.4680 96° East 459 528 34,300 -1,705 Descending FlightAware ADS-B
Wed 07:20:27 PM 45.7620 -96.3300 96° East 460 529 33,000 -1,694 Descending FlightAware ADS-B
Wed 07:21:07 PM 45.7540 -96.2080 95° East 461 531 31,900 -1,624 Descending FlightAware ADS-B
Wed 07:21:52 PM 45.7440 -96.0740 96° East 466 536 30,700 -1,624 Descending FlightAware ADS-B
Wed 07:22:32 PM 45.7350 -95.9530 96° East 463 533 29,600 -1,650 Descending FlightAware ADS-B
Wed 07:23:12 PM 45.7260 -95.8320 96° East 457 526 28,500 -1,694 Descending FlightAware ADS-B
Wed 07:23:57 PM 45.7160 -95.6940 96° East 450 518 27,200 -1,624 Descending FlightAware ADS-B
Wed 07:24:37 PM 45.7070 -95.5790 96° East 442 509 26,200 -1,575 Descending FlightAware ADS-B
Wed 07:25:17 PM 45.6980 -95.4630 96° East 432 497 25,100 -1,482 Descending FlightAware ADS-B
Wed 07:26:02 PM 45.6880 -95.3390 97° East 424 488 24,100 -776 Descending FlightAware ADS-B
Wed 07:26:42 PM 45.6800 -95.2310 96° East 425 489 24,000 -71 Descending FlightAware ADS-B
Wed 07:27:27 PM 45.6690 -95.1000 97° East 424 488 24,000  Level FlightAware ADS-B
Wed 07:28:07 PM 45.6600 -94.9870 96° East 429 494 24,000  Level FlightAware ADS-B
Wed 07:28:52 PM 45.6500 -94.8670 97° East 430 495 24,000  Level FlightAware ADS-B
Wed 07:29:32 PM 45.6400 -94.7520 97° East 432 497 24,000 -1,137 Level FlightAware ADS-B
Wed 07:30:27 PM 45.6350 -94.5960 93° East 417 480 22,200 -1,800 Descending FlightAware ADS-B
Wed 07:31:12 PM 45.6380 -94.4770 88° East 406 467 21,000 -847 Descending FlightAware ADS-B
Wed 07:31:52 PM 45.6400 -94.3680 88° East 418 481 21,000 -1,129 Level FlightAware ADS-B
Wed 07:32:37 PM 45.6420 -94.2420 89° East 404 465 19,400 -2,220 Descending FlightAware ADS-B
Wed 07:33:32 PM 45.6350 -94.1010 94° East 394 453 17,300 -2,463 Descending FlightAware ADS-B
Wed 07:34:12 PM 45.6170 -94.0020 105° East 382 440 15,500 -2,625 Descending FlightAware ADS-B
Wed 07:34:52 PM 45.5990 -93.9080 105° East 362 417 13,800 -2,541 Descending FlightAware ADS-B
Wed 07:35:37 PM 45.5790 -93.8060 106° East 325 374 11,900 -2,259 Descending FlightAware ADS-B
Wed 07:36:17 PM 45.5650 -93.7300 105° East 290 334 10,600 -1,971 Descending FlightAware ADS-B
Wed 07:36:47 PM 45.5540 -93.6770 106° East 273 314 9,600 -1,800 Descending FlightAware ADS-B
Wed 07:36:57 PM 45.5510 -93.6590 103° East 274 315 9,400 -1,800 Descending FlightAware ADS-B
Wed 07:37:27 PM 45.5400 -93.6050 106° East 285 328 8,400 -1,733 Descending FlightAware ADS-B
Wed 07:37:42 PM 45.5300 -93.5830 123° Southeast 278 320 8,100 -600 Descending FlightAware ADS-B
Wed 07:38:07 PM 45.5090 -93.5470 130° Southeast 276 318 8,000 -133 Descending FlightAware ADS-B
Wed 07:38:27 PM 45.4920 -93.5190 131° Southeast 276 318 8,000  Level FlightAware ADS-B
Wed 07:38:52 PM 45.4720 -93.4860 131° Southeast 269 310 8,000 -218 Level FlightAware ADS-B
Wed 07:39:22 PM 45.4490 -93.4470 130° Southeast 261 300 7,800 -1,200 Descending FlightAware ADS-B
Wed 07:39:47 PM 45.4280 -93.4130 131° Southeast 265 305 6,900 -1,964 Descending FlightAware ADS-B
Wed 07:40:17 PM 45.4030 -93.3740 132° Southeast 264 304 6,000 -1,733 Descending FlightAware ADS-B
Wed 07:40:32 PM 45.3910 -93.3550 132° Southeast 261 300 5,600 -1,500 Descending FlightAware ADS-B
Wed 07:40:57 PM 45.3700 -93.3220 132° Southeast 257 296 5,000 -655 Descending FlightAware ADS-B
Wed 07:41:27 PM 45.3460 -93.2850 133° Southeast 258 297 5,000  Level FlightAware ADS-B
Wed 07:41:57 PM 45.3220 -93.2480 133° Southeast 258 297 5,000  Level FlightAware ADS-B
Wed 07:42:22 PM 45.3030 -93.2190 133° Southeast 259 298 5,000 -109 Level FlightAware ADS-B
Wed 07:42:52 PM 45.2760 -93.1830 137° Southeast 257 296 4,900 -873 Descending FlightAware ADS-B
Wed 07:43:17 PM 45.2520 -93.1570 143° Southeast 254 292 4,200 -982 Descending FlightAware ADS-B
Wed 07:43:47 PM 45.2240 -93.1280 144° Southeast 259 298 4,000 -200 Descending FlightAware ADS-B
Wed 07:44:17 PM 45.1940 -93.0970 144° Southeast 256 295 4,000  Level FlightAware ADS-B
Wed 07:44:42 PM 45.1700 -93.0740 146° Southeast 262 302 4,000  Level FlightAware ADS-B
Wed 07:45:12 PM 45.1370 -93.0500 153° Southeast 267 307 4,000  Level FlightAware ADS-B
Wed 07:45:37 PM 45.1110 -93.0310 153° Southeast 267 307 4,000 -120 Level FlightAware ADS-B
Wed 07:46:02 PM 45.0800 -93.0170 162° South 273 314 3,900 -800 Descending FlightAware ADS-B
Wed 07:46:37 PM 45.0350 -93.0230 185° South 274 315 3,200 -1,000 Descending FlightAware ADS-B
Wed 07:47:02 PM 45.0060 -93.0290 188° South 261 300 2,900 -343 Descending FlightAware ADS-B
Wed 07:47:47 PM 44.9580 -93.0170 170° South 209 241 2,800 -257 Descending FlightAware ADS-B
Wed 07:48:12 PM 44.9390 -93.0040 154° Southeast 179 206 2,600 -750 Descending FlightAware ADS-B
Wed 07:48:27 PM 44.9260 -92.9980 162° South 178 205 2,300 -1,200 Descending FlightAware ADS-B
Wed 07:48:52 PM 44.9100 -93.0120 212° Southwest 178 205 1,800 -1,200 Descending FlightAware ADS-B
Wed 07:49:07 PM 44.9050 -93.0260 243° Southwest 164 189 1,500 -1,200 Descending FlightAware ADS-B
Wed 07:49:32 PM 44.9140 -93.0430 307° West 137 158 1,000 -600 Descending FlightAware ADS-B
Wed 07:49:57 PM 44.9270 -93.0540 329° Northwest 137 158 1,000  Level FlightAware ADS-B

Login

Don't have an account? Register now (free) for customized features, flight alerts, and more!